Time;durP1;ratioP1;P1;durP2;ratioP2;P2;SDS_P1;SDS_P2;PMS_P1;PMS_P2;Temp;Humidity;BMP_temperature;BMP_pressure;BME280_temperature;BME280_humidity;BME280_pressure;Samples;Min_cycle;Max_cycle;Signal;HPM_P1;HPM_P2
2021/12/06 15:56:12;;;;;;;5.40;3.70;;;4.30;99.90;;;;;;5104723;27;20647;-70
2021/12/06 15:58:39;;;;;;;5.30;3.30;;;4.30;99.90;;;;;;5099553;28;20541;-71
2021/12/06 16:01:07;;;;;;;3.70;3.20;;;4.50;99.90;;;;;;5083643;28;20434;-69
2021/12/06 16:03:47;;;;;;;4.20;3.80;;;5.00;99.90;;;;;;5084577;28;20476;-70
2021/12/06 16:06:16;;;;;;;6.73;4.47;;;4.70;99.90;;;;;;5103958;28;20409;-66
2021/12/06 16:08:46;;;;;;;6.40;4.70;;;4.90;99.90;;;;;;5095197;28;20557;-71
2021/12/06 16:11:21;;;;;;;6.40;4.77;;;5.00;99.90;;;;;;5109723;28;20522;-66
2021/12/06 16:13:49;;;;;;;6.27;4.93;;;5.00;99.90;;;;;;5095865;28;20868;-70
2021/12/06 16:16:18;;;;;;;9.10;6.90;;;5.10;99.90;;;;;;5099905;28;20425;-67
2021/12/06 16:18:45;;;;;;;9.07;5.93;;;5.20;99.90;;;;;;5097207;28;20463;-68
2021/12/06 16:21:14;;;;;;;6.53;5.00;;;5.20;99.90;;;;;;5102195;28;20471;-67
2021/12/06 16:23:44;;;;;;;9.17;4.93;;;5.30;99.90;;;;;;5112054;28;20431;-70
2021/12/06 16:26:17;;;;;;;5.20;4.37;;;5.20;99.90;;;;;;5101007;28;20478;-67
2021/12/06 16:29:03;;;;;;;5.47;4.80;;;5.10;99.90;;;;;;5103892;28;20457;-66
2021/12/06 16:31:31;;;;;;;22.40;12.90;;;5.00;99.90;;;;;;5095205;28;20795;-67
2021/12/06 16:33:59;;;;;;;12.57;8.40;;;4.90;99.90;;;;;;5103692;28;20417;-66
2021/12/06 16:36:34;;;;;;;9.13;6.37;;;4.80;99.90;;;;;;5107609;28;20461;-69
2021/12/06 16:39:09;;;;;;;7.60;6.00;;;4.80;99.90;;;;;;5084944;28;20796;-68
2021/12/06 16:41:55;;;;;;;9.07;7.20;;;4.70;99.90;;;;;;5099583;28;20416;-68
2021/12/06 16:44:29;;;;;;;13.30;8.43;;;4.70;99.90;;;;;;5109910;28;20726;-69
2021/12/06 16:47:00;;;;;;;8.97;6.73;;;4.70;99.90;;;;;;5088867;28;20409;-68
2021/12/06 16:49:31;;;;;;;9.67;6.73;;;4.70;99.90;;;;;;5087348;28;20931;-67
2021/12/06 16:52:15;;;;;;;11.10;5.80;;;4.70;99.90;;;;;;5089831;28;20422;-69
2021/12/06 16:54:41;;;;;;;9.83;7.67;;;4.60;99.90;;;;;;5091455;28;20929;-67
2021/12/06 16:57:09;;;;;;;8.13;6.80;;;4.50;99.90;;;;;;5100967;28;20413;-67
2021/12/06 16:59:42;;;;;;;9.67;6.40;;;4.40;99.90;;;;;;5103016;28;20179;-69
2021/12/06 17:02:11;;;;;;;10.27;7.87;;;4.30;99.90;;;;;;5095273;28;20525;-70
2021/12/06 17:04:46;;;;;;;11.53;7.97;;;4.30;99.90;;;;;;5094133;28;20418;-69
2021/12/06 17:07:28;;;;;;;16.47;11.13;;;4.20;99.90;;;;;;5085381;28;20429;-71
2021/12/06 17:09:56;;;;;;;15.90;10.87;;;4.10;99.90;;;;;;5068548;28;20545;-72
2021/12/06 17:12:22;;;;;;;16.50;11.27;;;4.00;99.90;;;;;;5091835;28;20603;-66
2021/12/06 17:14:48;;;;;;;13.47;8.27;;;4.00;99.90;;;;;;5111321;28;20445;-69
2021/12/06 17:17:14;;;;;;;12.73;9.20;;;3.90;99.90;;;;;;5096184;28;20418;-70
2021/12/06 17:19:40;;;;;;;13.40;8.93;;;3.80;99.90;;;;;;5068786;28;20757;-69
2021/12/06 17:22:16;;;;;;;10.50;7.97;;;3.80;99.90;;;;;;5071866;28;20428;-67
2021/12/06 17:24:48;;;;;;;11.63;7.83;;;3.80;99.90;;;;;;5088510;28;20617;-68
2021/12/06 17:27:32;;;;;;;14.07;8.33;;;3.80;99.90;;;;;;5087826;28;20452;-68
2021/12/06 17:29:59;;;;;;;9.63;7.33;;;3.80;99.90;;;;;;5090714;28;20402;-67
2021/12/06 17:32:25;;;;;;;9.53;6.27;;;3.80;99.90;;;;;;5083233;28;20869;-68
2021/12/06 17:34:51;;;;;;;7.37;5.90;;;3.70;99.90;;;;;;5069034;28;20520;-66
2021/12/06 17:37:17;;;;;;;7.50;6.10;;;3.80;99.90;;;;;;5071758;28;20989;-67
2021/12/06 17:39:45;;;;;;;9.20;6.57;;;4.30;99.90;;;;;;5089047;28;20190;-70
2021/12/06 17:42:12;;;;;;;10.90;7.70;;;3.80;99.90;;;;;;5085611;28;20614;-67
2021/12/06 17:44:38;;;;;;;10.80;7.20;;;3.80;99.90;;;;;;5085214;28;20506;-68
2021/12/06 17:47:04;;;;;;;12.03;7.30;;;4.00;99.90;;;;;;5078560;28;20793;-70
2021/12/06 17:49:30;;;;;;;10.23;7.37;;;3.80;99.90;;;;;;5089866;28;20638;-67
2021/12/06 17:51:57;;;;;;;12.03;8.13;;;3.90;99.90;;;;;;5080503;28;20196;-71
2021/12/06 17:54:25;;;;;;;8.90;6.93;;;3.80;99.90;;;;;;5068010;28;20759;-67
2021/12/06 17:56:53;;;;;;;10.23;8.17;;;3.80;99.90;;;;;;5072655;28;20480;-70
2021/12/06 17:59:20;;;;;;;11.70;8.20;;;3.80;99.90;;;;;;5070729;28;20445;-67
2021/12/06 18:01:50;;;;;;;14.87;7.67;;;3.70;99.90;;;;;;5079435;28;20433;-68
2021/12/06 18:04:32;;;;;;;12.07;8.60;;;3.70;99.90;;;;;;5077126;28;20430;-67
2021/12/06 18:06:58;;;;;;;11.57;7.90;;;3.70;99.90;;;;;;5075733;28;20418;-68
2021/12/06 18:09:27;;;;;;;12.10;8.10;;;3.70;99.90;;;;;;5075664;28;20512;-71
2021/12/06 18:11:58;;;;;;;12.23;8.60;;;3.70;99.90;;;;;;5081288;28;20176;-69
2021/12/06 18:14:26;;;;;;;12.20;8.67;;;3.70;99.90;;;;;;5085379;28;20461;-66
2021/12/06 18:16:53;;;;;;;11.97;7.93;;;3.80;99.90;;;;;;5089975;28;20509;-68
2021/12/06 18:19:21;;;;;;;12.53;7.90;;;3.90;99.90;;;;;;5087601;28;20491;-69
2021/12/06 18:21:48;;;;;;;14.10;8.50;;;4.00;99.90;;;;;;5089179;28;20782;-69
2021/12/06 18:24:14;;;;;;;10.90;7.70;;;4.10;99.90;;;;;;5089214;28;20467;-67
2021/12/06 18:26:40;;;;;;;11.40;8.40;;;4.20;99.90;;;;;;5088316;28;20946;-70
2021/12/06 18:29:11;;;;;;;14.07;9.10;;;4.10;99.90;;;;;;5088600;28;20552;-67
2021/12/06 18:31:40;;;;;;;16.93;8.77;;;4.20;99.90;;;;;;5090021;28;20398;-70
2021/12/06 18:34:05;;;;;;;12.33;8.53;;;4.20;99.90;;;;;;5088554;28;20412;-69
2021/12/06 18:36:34;;;;;;;15.37;8.63;;;4.30;99.90;;;;;;5088439;28;20402;-67
2021/12/06 18:39:04;;;;;;;14.53;7.90;;;4.60;99.90;;;;;;5086703;28;20194;-70
2021/12/06 18:41:32;;;;;;;11.93;8.20;;;4.40;99.90;;;;;;5089501;28;20426;-68
2021/12/06 18:46:31;;;;;;;10.93;7.97;;;4.40;99.90;;;;;;5109844;28;20709;-71
2021/12/06 18:48:57;;;;;;;13.37;7.67;;;4.50;99.90;;;;;;5089869;28;20961;-67
2021/12/06 18:51:25;;;;;;;13.13;8.27;;;4.50;99.90;;;;;;5078424;28;20930;-66
2021/12/06 18:53:55;;;;;;;13.20;8.37;;;4.80;99.90;;;;;;5087782;28;20410;-66
2021/12/06 18:56:21;;;;;;;12.97;8.90;;;4.60;99.90;;;;;;5089984;28;20485;-68
2021/12/06 18:58:47;;;;;;;12.27;7.40;;;5.10;99.90;;;;;;5088127;28;20511;-67
2021/12/06 19:01:16;;;;;;;12.23;8.10;;;4.50;99.90;;;;;;5088323;28;20417;-68
2021/12/06 19:03:43;;;;;;;10.60;7.50;;;4.50;99.90;;;;;;5087098;28;20430;-68
2021/12/06 19:06:08;;;;;;;17.23;10.40;;;4.50;99.90;;;;;;5089127;28;20413;-70
2021/12/06 19:08:34;;;;;;;13.67;9.33;;;4.50;99.90;;;;;;5079311;28;20450;-67
2021/12/06 19:11:00;;;;;;;13.70;9.20;;;4.40;99.90;;;;;;5073301;28;20268;-68
2021/12/06 19:13:27;;;;;;;13.37;9.00;;;4.70;99.90;;;;;;5093355;28;20210;-72
2021/12/06 19:15:53;;;;;;;12.63;9.00;;;4.50;99.90;;;;;;5081585;28;20203;-67
2021/12/06 19:18:19;;;;;;;13.10;9.87;;;4.40;99.90;;;;;;5085860;28;20456;-67
2021/12/06 19:20:44;;;;;;;12.00;8.80;;;4.40;99.90;;;;;;5088439;28;20852;-71
2021/12/06 19:23:17;;;;;;;11.83;9.07;;;4.30;99.90;;;;;;5067307;28;20638;-67
2021/12/06 19:25:44;;;;;;;14.40;8.57;;;4.40;99.90;;;;;;5078993;28;20657;-68
2021/12/06 19:28:14;;;;;;;15.33;9.47;;;4.40;99.90;;;;;;5088209;28;20907;-67
2021/12/06 19:30:44;;;;;;;13.90;10.57;;;4.50;99.90;;;;;;5075212;28;20574;-69
2021/12/06 19:33:10;;;;;;;15.13;9.70;;;4.50;99.90;;;;;;5086285;28;20414;-67
2021/12/06 19:35:38;;;;;;;15.67;9.93;;;4.60;99.90;;;;;;5087303;28;20457;-67
2021/12/06 19:38:05;;;;;;;13.10;8.90;;;4.80;99.90;;;;;;5088038;28;20445;-69
2021/12/06 19:40:32;;;;;;;14.17;9.43;;;4.60;99.90;;;;;;5089866;28;20749;-67
2021/12/06 19:42:58;;;;;;;11.50;8.17;;;4.60;99.90;;;;;;5091008;28;20469;-71
2021/12/06 19:45:24;;;;;;;11.23;8.10;;;4.60;99.90;;;;;;5081394;28;20441;-70
2021/12/06 19:47:50;;;;;;;12.97;8.50;;;4.70;99.90;;;;;;5075958;28;20434;-70
2021/12/06 19:50:17;;;;;;;10.50;7.90;;;4.60;99.90;;;;;;5086464;28;20176;-67
2021/12/06 19:52:43;;;;;;;12.53;8.33;;;4.30;99.90;;;;;;5075415;28;20421;-67
2021/12/06 19:55:11;;;;;;;11.90;8.53;;;4.70;99.90;;;;;;5085400;28;20457;-67
2021/12/06 19:57:39;;;;;;;13.20;8.30;;;4.60;99.90;;;;;;5075333;28;20422;-71
2021/12/06 20:00:12;;;;;;;12.17;7.47;;;4.80;99.90;;;;;;5070800;28;20541;-67
2021/12/06 20:02:39;;;;;;;11.53;7.70;;;4.50;99.90;;;;;;5072979;28;20419;-68
2021/12/06 20:05:05;;;;;;;13.20;8.80;;;4.50;99.90;;;;;;5079753;28;20429;-66
2021/12/06 20:07:31;;;;;;;9.80;7.47;;;4.50;99.90;;;;;;5080845;28;20421;-68
2021/12/06 20:09:56;;;;;;;10.40;7.90;;;4.50;99.90;;;;;;5083312;28;20426;-68
2021/12/06 20:12:22;;;;;;;11.13;7.53;;;4.50;99.90;;;;;;5094365;28;20195;-68
2021/12/06 20:14:48;;;;;;;10.00;6.63;;;4.90;99.90;;;;;;5079092;28;20188;-68
2021/12/06 20:17:16;;;;;;;13.10;8.20;;;4.50;99.90;;;;;;5083211;28;20692;-66
2021/12/06 20:19:43;;;;;;;11.07;8.37;;;4.60;99.90;;;;;;5073857;28;20435;-70
2021/12/06 20:22:09;;;;;;;11.20;7.30;;;4.60;99.90;;;;;;5065337;28;20407;-69
2021/12/06 20:24:36;;;;;;;9.00;6.87;;;4.60;99.90;;;;;;5080302;28;20491;-70
2021/12/06 20:27:04;;;;;;;14.20;6.73;;;4.50;99.90;;;;;;5074162;28;20444;-71
2021/12/06 20:29:30;;;;;;;11.57;6.17;;;4.50;99.90;;;;;;5084046;28;20469;-67
2021/12/06 20:31:56;;;;;;;8.10;6.33;;;4.70;99.90;;;;;;5086216;28;20887;-68
2021/12/06 20:34:21;;;;;;;8.20;6.13;;;4.70;99.90;;;;;;5082027;28;20290;-67
2021/12/06 20:36:47;;;;;;;8.03;6.30;;;4.50;99.90;;;;;;5084583;28;20483;-71
2021/12/06 20:39:12;;;;;;;8.83;5.97;;;4.50;99.90;;;;;;5067534;28;20292;-67
2021/12/06 20:41:39;;;;;;;8.37;6.20;;;4.50;99.90;;;;;;5087129;28;22201;-66
2021/12/06 20:44:05;;;;;;;8.40;6.00;;;4.40;99.90;;;;;;5099947;28;20355;-69
2021/12/06 20:46:35;;;;;;;7.60;6.00;;;4.40;99.90;;;;;;5089449;28;20489;-68
2021/12/06 20:49:02;;;;;;;10.10;6.50;;;4.40;99.90;;;;;;5087459;28;20496;-67
2021/12/06 20:51:31;;;;;;;10.80;8.50;;;4.30;99.90;;;;;;5070891;28;20407;-69
2021/12/06 20:54:02;;;;;;;10.47;6.70;;;4.30;99.90;;;;;;5067921;28;20417;-66
2021/12/06 20:56:28;;;;;;;7.93;5.80;;;4.40;99.90;;;;;;5073077;28;20436;-70
2021/12/06 20:58:54;;;;;;;9.53;6.27;;;4.50;99.90;;;;;;5070215;28;20513;-66
2021/12/06 21:01:20;;;;;;;7.27;5.80;;;4.40;99.90;;;;;;5070620;28;20211;-70
2021/12/06 21:03:45;;;;;;;6.40;5.33;;;4.40;99.90;;;;;;5068732;28;20438;-70
2021/12/06 21:06:13;;;;;;;10.20;6.30;;;4.30;99.90;;;;;;5085832;28;20677;-68
2021/12/06 21:08:40;;;;;;;11.47;7.60;;;4.30;99.90;;;;;;5086384;28;20704;-70
2021/12/06 21:11:33;;;;;;;10.00;6.73;;;4.30;99.90;;;;;;5090673;28;20416;-69
2021/12/06 21:13:58;;;;;;;11.57;7.50;;;4.30;99.90;;;;;;5082357;28;20970;-69
2021/12/06 21:16:30;;;;;;;8.30;6.20;;;4.30;99.90;;;;;;5087641;28;20409;-68
2021/12/06 21:19:15;;;;;;;10.07;7.23;;;4.30;99.90;;;;;;5086692;28;20510;-67
2021/12/06 21:21:44;;;;;;;9.00;6.87;;;4.20;99.90;;;;;;5088293;28;20408;-66
2021/12/06 21:24:11;;;;;;;10.70;7.20;;;4.20;99.90;;;;;;5074907;28;20411;-67
2021/12/06 21:26:39;;;;;;;10.30;7.20;;;4.20;99.90;;;;;;5071334;28;20415;-66
2021/12/06 21:29:05;;;;;;;9.87;6.80;;;4.20;99.90;;;;;;5068463;28;20430;-71
2021/12/06 21:31:31;;;;;;;11.07;7.10;;;4.20;99.90;;;;;;5069907;28;20730;-66
2021/12/06 21:33:57;;;;;;;9.67;7.10;;;4.20;99.90;;;;;;5068335;28;20873;-68
2021/12/06 21:36:23;;;;;;;9.87;5.93;;;4.50;99.90;;;;;;5088765;28;20433;-66
2021/12/06 21:38:50;;;;;;;8.70;6.03;;;4.20;99.90;;;;;;5087962;28;20252;-67
2021/12/06 21:41:17;;;;;;;7.67;5.43;;;4.20;99.90;;;;;;5090964;28;20425;-67
2021/12/06 21:43:42;;;;;;;8.00;5.40;;;4.30;99.90;;;;;;5100981;28;20405;-68
2021/12/06 21:46:08;;;;;;;6.90;5.20;;;4.20;99.90;;;;;;5091867;28;20428;-66
2021/12/06 21:48:34;;;;;;;6.03;5.10;;;4.20;99.90;;;;;;5087423;28;20210;-68
2021/12/06 21:50:59;;;;;;;7.63;5.30;;;4.20;99.90;;;;;;5074856;28;20202;-68
2021/12/06 21:53:26;;;;;;;7.17;5.20;;;4.60;99.90;;;;;;5076316;28;20168;-70
2021/12/06 21:55:52;;;;;;;7.40;5.10;;;4.30;99.90;;;;;;5085370;28;20200;-68
2021/12/06 21:58:18;;;;;;;6.20;5.00;;;4.30;99.90;;;;;;5087144;28;20437;-67
2021/12/06 22:00:50;;;;;;;5.73;4.13;;;4.30;99.90;;;;;;5086648;28;20455;-74
2021/12/06 22:03:24;;;;;;;12.10;4.30;;;4.30;99.90;;;;;;5081061;28;20429;-70
2021/12/06 22:05:51;;;;;;;5.60;4.00;;;4.50;99.90;;;;;;5086825;28;20414;-70
2021/12/06 22:08:17;;;;;;;7.97;4.17;;;4.40;99.90;;;;;;5075610;28;20533;-66
2021/12/06 22:10:44;;;;;;;4.60;3.37;;;4.40;99.90;;;;;;5079400;28;20408;-67
2021/12/06 22:13:09;;;;;;;5.10;3.77;;;4.40;99.90;;;;;;5098572;28;20793;-67
2021/12/06 22:15:35;;;;;;;4.70;3.70;;;4.40;99.90;;;;;;5105129;28;20462;-68
2021/12/06 22:18:01;;;;;;;5.07;3.80;;;4.40;99.90;;;;;;5083754;28;20720;-69
2021/12/06 22:20:28;;;;;;;4.00;3.30;;;4.50;99.90;;;;;;5087394;28;20402;-69
2021/12/06 22:22:58;;;;;;;4.40;3.57;;;4.50;99.90;;;;;;5086716;28;20167;-68
2021/12/06 22:25:25;;;;;;;7.60;4.20;;;5.00;99.90;;;;;;5086009;28;20418;-70
2021/12/06 22:27:50;;;;;;;5.23;4.03;;;4.60;99.90;;;;;;5088523;28;20453;-69
2021/12/06 22:30:18;;;;;;;6.90;4.10;;;4.60;99.90;;;;;;5088553;28;20418;-69
2021/12/06 22:32:47;;;;;;;5.37;4.03;;;4.50;99.90;;;;;;5080333;28;20168;-69
2021/12/06 22:35:14;;;;;;;5.37;4.00;;;4.50;99.90;;;;;;5073259;28;20446;-67
2021/12/06 22:37:40;;;;;;;6.97;3.90;;;4.40;99.90;;;;;;5068135;28;20989;-71
2021/12/06 22:40:08;;;;;;;5.53;4.27;;;4.40;99.90;;;;;;5073678;28;20497;-70
2021/12/06 22:42:33;;;;;;;6.93;4.13;;;4.40;99.90;;;;;;5099873;28;20182;-67
2021/12/06 22:44:59;;;;;;;5.87;4.63;;;4.40;99.90;;;;;;5087215;28;20421;-67
2021/12/06 22:47:25;;;;;;;4.30;3.90;;;4.40;99.90;;;;;;5076280;28;20194;-69
2021/12/06 22:49:50;;;;;;;5.73;4.27;;;4.80;99.90;;;;;;5083650;28;20200;-66
2021/12/06 22:52:16;;;;;;;7.30;3.70;;;4.40;99.90;;;;;;5067876;28;20187;-67
2021/12/06 22:54:42;;;;;;;6.00;4.13;;;4.50;99.90;;;;;;5068145;28;20262;-68
2021/12/06 22:57:08;;;;;;;5.70;3.80;;;4.70;99.90;;;;;;5086660;28;20172;-67
2021/12/06 22:59:34;;;;;;;6.30;4.80;;;4.50;99.90;;;;;;5086832;28;20195;-67
2021/12/06 23:02:01;;;;;;;5.90;4.40;;;4.40;99.90;;;;;;5087895;28;20414;-70
2021/12/06 23:04:27;;;;;;;6.20;4.17;;;4.50;99.90;;;;;;5083396;28;20175;-68
2021/12/06 23:06:52;;;;;;;7.87;4.80;;;4.50;99.90;;;;;;5087165;28;20460;-72
2021/12/06 23:09:18;;;;;;;9.33;5.03;;;4.70;99.90;;;;;;5087345;28;20267;-69
2021/12/06 23:11:44;;;;;;;7.70;5.07;;;4.40;99.90;;;;;;5094000;28;20286;-68
2021/12/06 23:14:09;;;;;;;6.47;4.53;;;4.50;99.90;;;;;;5101493;28;20581;-68
2021/12/06 23:16:36;;;;;;;5.60;4.23;;;4.40;99.90;;;;;;5108843;28;20179;-66
2021/12/06 23:19:03;;;;;;;5.23;4.37;;;4.30;99.90;;;;;;5087984;28;20969;-69
2021/12/06 23:21:28;;;;;;;4.93;3.93;;;4.40;99.90;;;;;;5082855;28;20429;-71
2021/12/06 23:23:55;;;;;;;5.93;4.40;;;4.60;99.90;;;;;;5086418;28;20410;-67
2021/12/06 23:26:21;;;;;;;6.30;4.40;;;4.40;99.90;;;;;;5084958;28;20189;-67
2021/12/06 23:28:47;;;;;;;6.77;4.33;;;4.30;99.90;;;;;;5085233;28;20448;-70
2021/12/06 23:31:13;;;;;;;7.10;4.60;;;4.80;99.90;;;;;;5070062;28;20419;-67
2021/12/06 23:33:43;;;;;;;5.33;4.13;;;4.40;99.90;;;;;;5073624;28;20165;-67
2021/12/06 23:36:10;;;;;;;5.33;4.17;;;4.40;99.90;;;;;;5066386;28;20566;-67
2021/12/06 23:38:42;;;;;;;5.77;3.93;;;4.40;99.90;;;;;;5080518;28;21029;-69
2021/12/06 23:41:24;;;;;;;4.93;3.70;;;4.40;99.90;;;;;;5082931;28;20418;-67
2021/12/06 23:46:39;;;;;;;5.70;3.80;;;4.40;99.90;;;;;;5093169;28;20801;-66
2021/12/06 23:49:20;;;;;;;4.40;3.67;;;4.40;99.90;;;;;;5082753;28;20938;-70
2021/12/06 23:51:48;;;;;;;5.83;4.40;;;4.40;99.90;;;;;;5086237;28;20414;-67
2021/12/06 23:54:21;;;;;;;7.07;4.43;;;4.30;99.90;;;;;;5067054;28;20434;-69
2021/12/06 23:56:48;;;;;;;5.73;3.80;;;4.00;99.90;;;;;;5068321;28;20425;-66
2021/12/06 23:59:14;;;;;;;4.33;3.53;;;3.80;99.90;;;;;;5067575;28;20442;-67
